Time;durP1;ratioP1;P1;durP2;ratioP2;P2;SDS_P1;SDS_P2;PMS_P1;PMS_P2;Temp;Humidity;BMP_temperature;BMP_pressure;BME280_temperature;BME280_humidity;BME280_pressure;Samples;Min_cycle;Max_cycle;Signal;HPM_P1;HPM_P2
2021/04/03 00:00:39;;;;;;;0.90;0.70;;;22.10;48.00;;;;;;5045256;28;20454;-82
2021/04/03 00:03:07;;;;;;;1.70;1.00;;;22.00;48.20;;;;;;5044236;28;20486;-81
2021/04/03 00:05:33;;;;;;;3.27;0.80;;;22.10;48.40;;;;;;5027268;28;20415;-82
2021/04/03 00:08:00;;;;;;;1.10;0.80;;;22.10;48.70;;;;;;5026501;28;20406;-81
2021/04/03 00:10:40;;;;;;;1.20;1.00;;;22.00;48.30;;;;;;5043342;28;20227;-82
2021/04/03 00:13:05;;;;;;;1.07;0.83;;;22.10;48.10;;;;;;5044632;28;20395;-81
2021/04/03 00:15:31;;;;;;;1.30;0.80;;;21.70;48.10;;;;;;5026993;28;20449;-81
2021/04/03 00:17:57;;;;;;;0.87;0.67;;;22.00;48.40;;;;;;5029752;28;20262;-81
2021/04/03 00:20:26;;;;;;;1.40;0.80;;;22.00;48.70;;;;;;5030621;28;20207;-82
2021/04/03 00:22:51;;;;;;;1.00;0.70;;;22.00;48.10;;;;;;5047769;28;20180;-82
2021/04/03 00:25:17;;;;;;;0.80;0.70;;;22.00;48.90;;;;;;5048893;28;20484;-82
2021/04/03 00:27:43;;;;;;;1.63;0.87;;;22.00;48.60;;;;;;5050043;28;20223;-82
2021/04/03 00:30:17;;;;;;;1.00;0.80;;;22.00;48.30;;;;;;5048414;28;20184;-82
2021/04/03 00:32:57;;;;;;;0.80;0.60;;;22.00;48.20;;;;;;5048180;28;20398;-82
2021/04/03 00:35:28;;;;;;;1.00;0.70;;;22.00;48.10;;;;;;5030266;28;20498;-82
2021/04/03 00:37:58;;;;;;;1.00;0.67;;;22.00;48.30;;;;;;5048143;28;20414;-81
2021/04/03 00:40:39;;;;;;;1.00;0.80;;;22.00;48.30;;;;;;5048404;28;20513;-82
2021/04/03 00:43:09;;;;;;;1.00;0.70;;;22.00;48.20;;;;;;5030316;28;20414;-82
2021/04/03 00:45:38;;;;;;;0.90;0.70;;;22.00;48.40;;;;;;5047037;28;20414;-82
2021/04/03 00:48:05;;;;;;;1.10;0.70;;;22.10;48.30;;;;;;5030805;28;20425;-82
2021/04/03 00:50:34;;;;;;;0.90;0.70;;;22.00;49.00;;;;;;5048711;28;20403;-81
2021/04/03 00:53:00;;;;;;;1.23;1.07;;;22.00;48.90;;;;;;5031045;28;20434;-82
2021/04/03 00:55:26;;;;;;;0.90;0.70;;;22.00;49.50;;;;;;5030867;28;20779;-82
2021/04/03 00:57:52;;;;;;;1.10;0.90;;;22.00;48.70;;;;;;5049147;28;20403;-81
2021/04/03 01:00:18;;;;;;;1.40;0.77;;;22.00;48.40;;;;;;5031722;28;20466;-82
2021/04/03 01:02:44;;;;;;;1.10;0.83;;;22.00;48.60;;;;;;5047700;28;20414;-82
2021/04/03 01:05:18;;;;;;;1.10;0.70;;;21.90;48.80;;;;;;5031666;28;20920;-82
2021/04/03 01:07:44;;;;;;;1.10;0.70;;;22.00;48.20;;;;;;5049065;28;20262;-83
2021/04/03 01:10:17;;;;;;;0.93;0.70;;;22.00;48.90;;;;;;5031118;28;20418;-82
2021/04/03 01:12:51;;;;;;;1.07;0.70;;;21.90;49.00;;;;;;5031673;28;20226;-82
2021/04/03 01:15:42;;;;;;;1.20;0.60;;;21.90;49.40;;;;;;5031024;28;20418;-82
2021/04/03 01:18:30;;;;;;;1.07;0.83;;;22.00;48.50;;;;;;5047917;28;20410;-82
2021/04/03 01:21:01;;;;;;;1.10;0.80;;;21.90;48.10;;;;;;5047755;28;20458;-82
2021/04/03 01:23:50;;;;;;;1.90;0.83;;;21.90;48.20;;;;;;5058382;28;20455;-82
2021/04/03 01:26:53;;;;;;;1.00;0.70;;;21.90;48.10;;;;;;5068712;28;20382;-82
2021/04/03 01:29:50;;;;;;;0.93;0.70;;;21.90;48.10;;;;;;5068544;28;20445;-82
2021/04/03 01:32:23;;;;;;;0.80;0.70;;;21.90;48.20;;;;;;5050962;28;20410;-81
2021/04/03 01:34:49;;;;;;;1.00;0.60;;;21.90;48.30;;;;;;5067206;28;20412;-83
2021/04/03 01:37:19;;;;;;;0.90;0.67;;;21.90;48.70;;;;;;5057266;28;20450;-83
2021/04/03 01:39:49;;;;;;;0.97;0.70;;;21.90;48.30;;;;;;5031483;28;20478;-84
2021/04/03 01:42:19;;;;;;;1.30;0.70;;;21.90;48.30;;;;;;5032452;28;20502;-84
2021/04/03 01:44:51;;;;;;;0.90;0.70;;;21.90;48.50;;;;;;5032064;28;20818;-83
2021/04/03 01:47:22;;;;;;;0.90;0.80;;;21.90;48.40;;;;;;5031302;28;20480;-83
2021/04/03 01:49:53;;;;;;;1.20;0.90;;;21.90;48.50;;;;;;5031607;28;20419;-83
2021/04/03 01:52:25;;;;;;;1.20;0.90;;;21.90;48.60;;;;;;5030631;28;20449;-83
2021/04/03 01:54:56;;;;;;;1.03;0.70;;;21.90;48.40;;;;;;5015372;28;20790;-83
2021/04/03 01:57:29;;;;;;;0.90;0.67;;;21.90;48.30;;;;;;5030801;28;20407;-83
2021/04/03 01:59:55;;;;;;;0.87;0.70;;;21.90;48.50;;;;;;5032287;28;20439;-83
2021/04/03 02:02:22;;;;;;;1.00;0.70;;;21.90;48.40;;;;;;5014163;28;20410;-83
2021/04/03 02:04:49;;;;;;;0.90;0.63;;;21.90;48.70;;;;;;4997899;28;20434;-84
2021/04/03 02:07:20;;;;;;;0.80;0.70;;;21.90;48.90;;;;;;5030908;28;20837;-83
2021/04/03 02:09:50;;;;;;;0.93;0.80;;;21.90;48.60;;;;;;5031871;28;20419;-83
2021/04/03 02:12:18;;;;;;;1.23;0.80;;;21.70;48.40;;;;;;4998544;28;20431;-83
2021/04/03 02:14:52;;;;;;;0.90;0.70;;;21.80;48.50;;;;;;5031808;28;20762;-83
2021/04/03 02:17:22;;;;;;;1.17;0.70;;;21.80;48.10;;;;;;5031333;28;20399;-83
2021/04/03 02:19:48;;;;;;;1.37;0.70;;;21.80;48.70;;;;;;5029930;28;20474;-83
2021/04/03 02:22:18;;;;;;;1.00;0.70;;;21.80;49.20;;;;;;5030790;28;20423;-83
2021/04/03 02:24:44;;;;;;;1.13;0.73;;;21.80;48.40;;;;;;5030082;28;20550;-83
2021/04/03 02:27:11;;;;;;;1.10;0.80;;;21.80;48.40;;;;;;5013894;28;20478;-84
2021/04/03 02:29:38;;;;;;;0.90;0.70;;;21.80;48.60;;;;;;5030967;28;20422;-83
2021/04/03 02:32:06;;;;;;;1.00;0.73;;;21.80;48.70;;;;;;5030821;28;20416;-84
2021/04/03 02:34:38;;;;;;;1.03;0.77;;;21.80;48.40;;;;;;5031407;28;20411;-84
2021/04/03 02:37:05;;;;;;;1.20;0.70;;;21.80;48.90;;;;;;5030074;28;20416;-83
2021/04/03 02:39:32;;;;;;;0.90;0.70;;;21.50;48.80;;;;;;4996871;28;20463;-84
2021/04/03 02:42:09;;;;;;;1.40;0.90;;;21.80;48.90;;;;;;5031056;28;20818;-83
2021/04/03 02:44:44;;;;;;;1.10;0.80;;;21.50;48.10;;;;;;5013632;28;20412;-83
2021/04/03 02:47:21;;;;;;;0.80;0.60;;;21.80;48.70;;;;;;5030889;28;20387;-84
2021/04/03 02:49:58;;;;;;;1.00;0.80;;;21.80;48.60;;;;;;5013891;28;20615;-84
2021/04/03 02:52:27;;;;;;;0.90;0.70;;;21.80;48.60;;;;;;5028885;28;20960;-81
2021/04/03 02:55:08;;;;;;;1.10;0.80;;;21.70;48.60;;;;;;5028454;28;20443;-82
2021/04/03 02:57:36;;;;;;;1.00;0.70;;;21.80;48.40;;;;;;5026343;28;20450;-82
2021/04/03 03:00:06;;;;;;;0.90;0.70;;;21.70;48.70;;;;;;5026063;28;20457;-82
2021/04/03 03:02:34;;;;;;;1.10;0.70;;;21.70;48.60;;;;;;5026168;28;20384;-82
2021/04/03 03:05:04;;;;;;;1.10;0.80;;;21.70;48.60;;;;;;5024964;28;20411;-82
2021/04/03 03:07:33;;;;;;;1.10;0.83;;;21.70;48.50;;;;;;5024516;28;20411;-82
2021/04/03 03:09:59;;;;;;;0.90;0.70;;;21.80;48.70;;;;;;5010421;28;20420;-82
2021/04/03 03:12:28;;;;;;;0.90;0.70;;;21.70;48.70;;;;;;5025852;28;20847;-82
2021/04/03 03:14:55;;;;;;;0.87;0.60;;;21.60;48.40;;;;;;5025344;28;20403;-81
2021/04/03 03:17:21;;;;;;;1.10;0.80;;;21.50;48.40;;;;;;5026227;28;20906;-81
2021/04/03 03:19:48;;;;;;;1.10;0.80;;;21.70;49.10;;;;;;5028690;28;20806;-83
2021/04/03 03:22:15;;;;;;;1.10;0.70;;;21.80;49.20;;;;;;5028276;28;20446;-83
2021/04/03 03:24:41;;;;;;;0.90;0.70;;;21.80;48.70;;;;;;5028075;28;20438;-83
2021/04/03 03:27:10;;;;;;;0.90;0.80;;;21.40;49.10;;;;;;5028537;28;20545;-84
2021/04/03 03:29:38;;;;;;;1.17;0.80;;;21.80;48.70;;;;;;5012305;28;20180;-83
2021/04/03 03:32:05;;;;;;;1.13;0.73;;;21.70;48.70;;;;;;5012518;28;20419;-83
2021/04/03 03:34:30;;;;;;;0.90;0.70;;;21.70;48.60;;;;;;5012500;28;20426;-83
2021/04/03 03:36:57;;;;;;;0.97;0.70;;;21.70;49.30;;;;;;5028912;28;20424;-83
2021/04/03 03:39:24;;;;;;;0.90;0.70;;;21.70;48.70;;;;;;5029431;28;20172;-83
2021/04/03 03:41:56;;;;;;;1.10;0.80;;;21.70;48.50;;;;;;5048076;28;20465;-83
2021/04/03 03:44:22;;;;;;;1.00;0.90;;;21.70;48.30;;;;;;5049689;28;20415;-83
2021/04/03 03:46:47;;;;;;;0.87;0.70;;;21.70;49.00;;;;;;5049537;28;20417;-83
2021/04/03 03:49:13;;;;;;;1.03;0.80;;;21.70;49.30;;;;;;5048843;28;20622;-83
2021/04/03 03:51:42;;;;;;;0.93;0.73;;;21.70;48.90;;;;;;5050601;28;20218;-83
2021/04/03 03:54:08;;;;;;;0.77;0.60;;;21.70;48.60;;;;;;5053863;28;20171;-82
2021/04/03 03:56:34;;;;;;;0.90;0.80;;;21.70;49.90;;;;;;5036495;28;20418;-83
2021/04/03 03:59:02;;;;;;;0.87;0.63;;;21.70;49.20;;;;;;5053364;28;20416;-83
2021/04/03 04:01:27;;;;;;;0.90;0.80;;;21.70;48.90;;;;;;5052527;28;20462;-83
2021/04/03 04:03:53;;;;;;;1.00;0.77;;;21.70;49.30;;;;;;5036377;28;20428;-83
2021/04/03 04:06:19;;;;;;;1.23;0.80;;;21.70;49.10;;;;;;5053326;28;20202;-83
2021/04/03 04:08:45;;;;;;;1.10;0.80;;;21.60;49.20;;;;;;5051891;28;20203;-83
2021/04/03 04:11:12;;;;;;;0.90;0.70;;;21.60;48.90;;;;;;5052333;28;20199;-83
2021/04/03 04:13:38;;;;;;;1.30;0.80;;;21.70;48.70;;;;;;5053717;28;20533;-83
2021/04/03 04:16:05;;;;;;;1.30;0.90;;;21.60;49.90;;;;;;5035806;28;20422;-83
2021/04/03 04:18:31;;;;;;;1.07;0.73;;;21.60;49.10;;;;;;5035790;28;20418;-83
2021/04/03 04:20:58;;;;;;;0.90;0.73;;;21.70;48.80;;;;;;5053474;28;20464;-83
2021/04/03 04:23:24;;;;;;;0.90;0.70;;;21.70;48.80;;;;;;5053512;28;20481;-83
2021/04/03 04:25:50;;;;;;;1.13;0.70;;;21.70;49.00;;;;;;5036127;28;20425;-83
2021/04/03 04:28:17;;;;;;;1.30;0.80;;;21.70;48.80;;;;;;5051450;28;20410;-83
2021/04/03 04:30:43;;;;;;;0.83;0.67;;;21.70;48.80;;;;;;5053376;28;20438;-82
2021/04/03 04:33:12;;;;;;;0.80;0.70;;;21.70;49.30;;;;;;5034939;28;20497;-81
2021/04/03 04:35:38;;;;;;;1.00;0.77;;;21.70;49.30;;;;;;5035117;28;20428;-83
2021/04/03 04:38:04;;;;;;;1.03;0.70;;;21.70;48.90;;;;;;5053209;28;20445;-83
2021/04/03 04:40:30;;;;;;;1.10;0.80;;;21.70;49.40;;;;;;5052324;28;20203;-83
2021/04/03 04:42:57;;;;;;;1.03;0.83;;;21.70;48.90;;;;;;5035819;28;20168;-83
2021/04/03 04:45:24;;;;;;;0.83;0.63;;;21.80;49.60;;;;;;5034952;28;20418;-83
2021/04/03 04:47:52;;;;;;;0.80;0.70;;;21.80;48.80;;;;;;5052104;28;20417;-81
2021/04/03 04:50:18;;;;;;;0.80;0.60;;;21.80;48.50;;;;;;5052357;28;20414;-83
2021/04/03 04:52:44;;;;;;;0.90;0.70;;;21.80;48.80;;;;;;5034984;28;20450;-82
2021/04/03 04:55:10;;;;;;;0.90;0.67;;;21.80;48.80;;;;;;5035518;28;20176;-82
2021/04/03 04:57:36;;;;;;;1.17;1.07;;;21.80;48.70;;;;;;5035348;28;20188;-82
2021/04/03 05:00:03;;;;;;;0.90;0.80;;;21.90;48.60;;;;;;5035949;28;20526;-82
2021/04/03 05:02:29;;;;;;;0.97;0.77;;;21.80;48.10;;;;;;5051482;28;20187;-83
2021/04/03 05:04:55;;;;;;;1.00;0.80;;;21.80;48.70;;;;;;5051744;28;20407;-83
2021/04/03 05:07:21;;;;;;;1.10;0.80;;;21.90;48.50;;;;;;5051559;28;20341;-82
2021/04/03 05:09:48;;;;;;;1.23;0.73;;;21.90;48.70;;;;;;5052312;28;20176;-82
2021/04/03 05:12:14;;;;;;;1.00;0.70;;;21.90;49.00;;;;;;5052351;28;20684;-84
2021/04/03 05:14:39;;;;;;;1.00;0.80;;;21.90;49.60;;;;;;5034763;28;20423;-83
2021/04/03 05:17:05;;;;;;;1.00;0.73;;;21.90;48.30;;;;;;5035283;28;20553;-83
2021/04/03 05:19:31;;;;;;;1.10;0.80;;;21.90;49.20;;;;;;5050789;28;20195;-83
2021/04/03 05:21:57;;;;;;;1.37;0.70;;;21.90;48.70;;;;;;5034859;28;20203;-83
2021/04/03 05:24:22;;;;;;;0.90;0.80;;;21.90;48.40;;;;;;5050254;28;20275;-83
2021/04/03 05:30:13;;;;;;;1.20;0.80;;;21.90;47.80;;;;;;5052150;28;20188;-83
2021/04/03 05:32:39;;;;;;;1.03;0.90;;;21.90;48.60;;;;;;5051847;28;20407;-83
2021/04/03 05:35:06;;;;;;;1.20;0.80;;;21.50;48.80;;;;;;5034514;28;20429;-83
2021/04/03 05:37:32;;;;;;;1.10;0.90;;;21.90;48.30;;;;;;5051638;28;20184;-83
2021/04/03 05:39:57;;;;;;;0.90;0.80;;;21.90;49.00;;;;;;5034992;28;20482;-82
2021/04/03 05:42:25;;;;;;;1.33;0.90;;;21.90;48.10;;;;;;5051223;28;20426;-82
2021/04/03 05:44:51;;;;;;;1.00;0.77;;;21.90;48.30;;;;;;5051166;28;20263;-82
2021/04/03 05:47:17;;;;;;;0.90;0.70;;;22.00;48.30;;;;;;5052157;28;20410;-82
2021/04/03 05:49:43;;;;;;;1.23;0.80;;;21.90;48.10;;;;;;5052392;28;20179;-83
2021/04/03 05:52:09;;;;;;;0.90;0.70;;;21.90;47.90;;;;;;5051412;28;20226;-83
2021/04/03 05:54:39;;;;;;;0.90;0.70;;;21.90;48.60;;;;;;5052239;28;20426;-84
2021/04/03 05:57:08;;;;;;;1.00;0.80;;;22.00;48.10;;;;;;5051596;28;20425;-83
2021/04/03 05:59:34;;;;;;;0.97;0.73;;;21.90;48.70;;;;;;5033958;28;20979;-83
2021/04/03 06:02:01;;;;;;;0.90;0.70;;;21.90;48.20;;;;;;5050609;28;20446;-82
2021/04/03 06:04:29;;;;;;;0.90;0.70;;;21.90;49.10;;;;;;5034610;28;20789;-83
2021/04/03 06:06:55;;;;;;;1.13;0.87;;;22.00;48.70;;;;;;5051116;28;20407;-83
2021/04/03 06:09:21;;;;;;;1.20;0.80;;;22.10;48.70;;;;;;5051441;28;20414;-83
2021/04/03 06:11:48;;;;;;;1.17;0.80;;;22.20;49.80;;;;;;5051234;28;20199;-83
2021/04/03 06:14:16;;;;;;;0.80;0.70;;;22.00;48.30;;;;;;5050888;28;20172;-83
2021/04/03 06:16:43;;;;;;;0.90;0.70;;;22.00;48.10;;;;;;5050741;28;20460;-83
2021/04/03 06:19:24;;;;;;;0.90;0.60;;;22.00;48.10;;;;;;5049008;28;20488;-84
2021/04/03 06:21:52;;;;;;;0.80;0.60;;;22.00;48.40;;;;;;5049241;28;20849;-83
2021/04/03 06:24:36;;;;;;;0.80;0.70;;;22.00;48.80;;;;;;5050660;28;20498;-83
2021/04/03 06:27:05;;;;;;;1.00;0.80;;;22.00;47.90;;;;;;5050938;28;20418;-83
2021/04/03 06:29:37;;;;;;;1.20;0.90;;;22.00;49.00;;;;;;5032948;28;20449;-82
2021/04/03 06:32:04;;;;;;;1.20;0.70;;;22.00;48.00;;;;;;5033123;28;20908;-81
2021/04/03 06:34:32;;;;;;;0.80;0.60;;;22.00;48.20;;;;;;5033616;28;20518;-82
2021/04/03 06:37:00;;;;;;;0.83;0.63;;;22.00;48.30;;;;;;5033231;28;20418;-82
2021/04/03 06:39:28;;;;;;;0.80;0.60;;;21.90;48.40;;;;;;5049883;28;20960;-82
2021/04/03 06:41:53;;;;;;;0.80;0.60;;;22.00;48.80;;;;;;5050450;28;20430;-81
2021/04/03 06:44:20;;;;;;;0.90;0.70;;;22.00;49.30;;;;;;5049105;28;20411;-82
2021/04/03 06:46:47;;;;;;;1.00;0.77;;;22.00;48.20;;;;;;5050293;28;20179;-81
2021/04/03 06:49:15;;;;;;;0.90;0.67;;;22.00;48.10;;;;;;5050180;28;20920;-80
2021/04/03 06:51:42;;;;;;;0.80;0.53;;;22.10;49.50;;;;;;5033599;28;20455;-82
2021/04/03 06:54:10;;;;;;;0.80;0.60;;;22.00;48.20;;;;;;5051229;28;20405;-81
2021/04/03 06:56:38;;;;;;;0.90;0.70;;;22.40;48.70;;;;;;5034144;28;20417;-81
2021/04/03 06:59:11;;;;;;;1.17;0.60;;;22.00;48.30;;;;;;5050339;28;20407;-82
2021/04/03 07:01:49;;;;;;;0.83;0.60;;;22.00;48.10;;;;;;5051419;28;20410;-82
2021/04/03 07:04:32;;;;;;;0.83;0.67;;;22.00;48.20;;;;;;5034170;28;20489;-82
2021/04/03 07:06:58;;;;;;;1.13;0.93;;;22.00;48.00;;;;;;5051056;28;20387;-82
2021/04/03 07:09:25;;;;;;;1.00;0.70;;;22.00;48.60;;;;;;5033498;28;20439;-83
2021/04/03 07:11:52;;;;;;;0.80;0.70;;;22.00;48.80;;;;;;5049888;28;20473;-82
2021/04/03 07:14:20;;;;;;;0.80;0.60;;;22.00;48.10;;;;;;5051162;28;20402;-82
2021/04/03 07:16:48;;;;;;;0.90;0.70;;;22.00;48.60;;;;;;5050541;28;20449;-83
2021/04/03 07:19:16;;;;;;;0.80;0.63;;;22.10;48.40;;;;;;5050358;28;20428;-82
2021/04/03 07:21:43;;;;;;;1.00;0.80;;;22.00;48.40;;;;;;5050684;28;20414;-82
2021/04/03 07:24:13;;;;;;;1.10;0.80;;;22.10;48.60;;;;;;5050003;28;20409;-81
2021/04/03 07:26:44;;;;;;;0.80;0.60;;;22.10;48.40;;;;;;5050455;28;20414;-81
2021/04/03 07:29:38;;;;;;;1.20;0.77;;;22.10;48.30;;;;;;5050528;28;20444;-82
2021/04/03 07:32:05;;;;;;;0.93;0.60;;;22.10;48.10;;;;;;5032217;28;20518;-83
2021/04/03 07:34:40;;;;;;;0.90;0.60;;;22.00;49.00;;;;;;5050645;28;20434;-83
2021/04/03 07:37:10;;;;;;;1.10;0.80;;;22.10;48.50;;;;;;5050159;28;20851;-83
2021/04/03 07:39:39;;;;;;;1.13;0.70;;;22.10;48.60;;;;;;5049209;28;20465;-83
2021/04/03 07:42:06;;;;;;;0.90;0.70;;;22.00;48.30;;;;;;5049527;28;20419;-83
2021/04/03 07:44:40;;;;;;;1.10;0.70;;;22.10;48.50;;;;;;5016393;28;20422;-84
2021/04/03 07:47:20;;;;;;;0.90;0.73;;;22.10;48.20;;;;;;5032308;28;20419;-83
2021/04/03 07:49:47;;;;;;;0.90;0.70;;;22.10;48.50;;;;;;5048391;28;20508;-83
2021/04/03 07:52:13;;;;;;;0.90;0.77;;;22.10;48.70;;;;;;5048806;28;20966;-82
2021/04/03 07:54:39;;;;;;;1.20;0.73;;;22.10;48.80;;;;;;5050154;28;20493;-83
2021/04/03 07:57:13;;;;;;;1.00;0.70;;;22.10;48.70;;;;;;5050003;28;20410;-83
2021/04/03 07:59:47;;;;;;;0.80;0.60;;;22.10;48.50;;;;;;5048579;28;20502;-83
2021/04/03 08:02:15;;;;;;;0.90;0.80;;;22.10;48.40;;;;;;5049950;28;20433;-83
2021/04/03 08:04:41;;;;;;;1.20;0.80;;;22.10;48.50;;;;;;5049948;28;20425;-82
2021/04/03 08:07:08;;;;;;;0.90;0.70;;;22.10;48.40;;;;;;5032260;28;20485;-82
2021/04/03 08:09:35;;;;;;;0.97;0.73;;;22.10;48.90;;;;;;5016632;28;20426;-83
2021/04/03 08:12:03;;;;;;;1.37;0.73;;;22.10;48.60;;;;;;5049001;28;20422;-83
2021/04/03 08:14:31;;;;;;;0.80;0.60;;;22.10;49.20;;;;;;5049012;28;20425;-83
2021/04/03 08:16:58;;;;;;;0.80;0.70;;;22.10;48.30;;;;;;5048506;28;20434;-82
2021/04/03 08:19:28;;;;;;;1.07;0.77;;;22.10;48.60;;;;;;5049944;28;20414;-83
2021/04/03 08:21:54;;;;;;;0.80;0.67;;;22.10;48.80;;;;;;5050157;28;20486;-83
2021/04/03 08:24:23;;;;;;;1.23;0.73;;;21.80;48.30;;;;;;5048702;28;20415;-83
2021/04/03 08:26:50;;;;;;;1.00;0.60;;;22.10;48.50;;;;;;5047706;28;20433;-83
2021/04/03 08:29:26;;;;;;;1.10;0.70;;;22.10;48.50;;;;;;5049927;28;20509;-83
2021/04/03 08:31:54;;;;;;;0.90;0.70;;;22.00;48.20;;;;;;5048709;28;20409;-83
2021/04/03 08:34:20;;;;;;;0.80;0.60;;;22.10;48.60;;;;;;5048689;28;20422;-83
2021/04/03 08:36:46;;;;;;;0.80;0.60;;;22.10;49.20;;;;;;5047925;28;20458;-83
2021/04/03 08:39:14;;;;;;;1.07;0.70;;;22.10;49.10;;;;;;5052935;28;20413;-83
2021/04/03 08:41:46;;;;;;;1.03;0.60;;;22.10;48.50;;;;;;5052574;28;20186;-83
2021/04/03 08:44:19;;;;;;;1.00;0.70;;;22.10;48.50;;;;;;5053585;28;20405;-83
2021/04/03 08:46:47;;;;;;;0.90;0.70;;;22.10;48.40;;;;;;5052894;28;20405;-82
2021/04/03 08:49:31;;;;;;;0.90;0.67;;;22.10;48.60;;;;;;5053489;28;20429;-83
2021/04/03 08:51:57;;;;;;;0.87;0.60;;;22.10;48.80;;;;;;5035329;28;20422;-83
2021/04/03 08:54:23;;;;;;;1.10;0.90;;;22.10;49.00;;;;;;5035795;28;20414;-83
2021/04/03 08:56:49;;;;;;;0.90;0.77;;;22.10;49.20;;;;;;5035799;28;20429;-83
2021/04/03 08:59:19;;;;;;;0.90;0.70;;;22.10;48.30;;;;;;5052633;28;20168;-83
2021/04/03 09:01:48;;;;;;;0.90;0.60;;;22.10;48.60;;;;;;5052441;28;20402;-83
2021/04/03 09:04:14;;;;;;;0.87;0.70;;;22.10;48.40;;;;;;5053162;28;20763;-83
2021/04/03 09:06:41;;;;;;;1.00;0.80;;;22.20;48.80;;;;;;5052111;28;20422;-83
2021/04/03 09:09:15;;;;;;;0.83;0.70;;;22.10;48.40;;;;;;5035731;28;20437;-83
2021/04/03 09:12:04;;;;;;;0.80;0.60;;;22.10;48.40;;;;;;5034860;28;20465;-82
2021/04/03 09:14:38;;;;;;;1.00;0.60;;;22.10;48.20;;;;;;5051422;28;20407;-83
2021/04/03 09:17:21;;;;;;;0.80;0.60;;;22.10;48.20;;;;;;5050455;28;20414;-83
2021/04/03 09:19:47;;;;;;;0.70;0.50;;;22.10;48.30;;;;;;5052121;28;20442;-83
2021/04/03 09:22:17;;;;;;;0.80;0.50;;;22.10;48.60;;;;;;5052511;28;20406;-83
2021/04/03 09:24:55;;;;;;;0.80;0.60;;;22.10;48.60;;;;;;5051671;28;20896;-83
2021/04/03 09:27:22;;;;;;;0.80;0.60;;;22.40;48.50;;;;;;5051505;28;20446;-83
2021/04/03 09:29:56;;;;;;;0.80;0.60;;;22.10;48.40;;;;;;5051102;28;20458;-82
2021/04/03 09:32:22;;;;;;;0.90;0.70;;;22.10;48.70;;;;;;5052305;28;20391;-82
2021/04/03 09:34:48;;;;;;;0.80;0.60;;;22.10;49.10;;;;;;5034142;28;20426;-82
2021/04/03 09:37:20;;;;;;;1.17;0.70;;;22.10;49.10;;;;;;5034506;28;20422;-83
2021/04/03 09:39:48;;;;;;;0.90;0.60;;;22.10;48.40;;;;;;5051187;28;20559;-83
2021/04/03 09:42:15;;;;;;;0.77;0.60;;;22.10;48.60;;;;;;5050322;28;20410;-83
2021/04/03 09:44:41;;;;;;;0.80;0.60;;;22.10;48.70;;;;;;5034449;28;20414;-83
2021/04/03 09:47:07;;;;;;;0.90;0.60;;;22.10;48.40;;;;;;5034273;28;20502;-84
2021/04/03 09:49:35;;;;;;;0.70;0.50;;;22.10;48.80;;;;;;5049714;28;20422;-83
2021/04/03 09:52:01;;;;;;;0.80;0.60;;;22.10;49.70;;;;;;5050835;28;20176;-83
2021/04/03 09:54:28;;;;;;;0.90;0.60;;;22.10;48.30;;;;;;5052075;28;20434;-83
2021/04/03 09:56:55;;;;;;;0.80;0.57;;;22.10;48.80;;;;;;5051619;28;20422;-83
2021/04/03 09:59:24;;;;;;;0.80;0.60;;;22.10;48.30;;;;;;5034349;28;20419;-83
2021/04/03 10:01:51;;;;;;;0.93;0.60;;;22.10;48.40;;;;;;5051157;28;20426;-83
2021/04/03 10:04:17;;;;;;;1.00;0.70;;;22.10;48.70;;;;;;5018110;28;20421;-83
2021/04/03 10:06:43;;;;;;;0.80;0.57;;;22.10;49.30;;;;;;5051690;28;20410;-83
2021/04/03 10:09:09;;;;;;;0.90;0.63;;;22.10;49.20;;;;;;5034344;28;20426;-83
2021/04/03 10:11:35;;;;;;;0.80;0.60;;;22.30;50.10;;;;;;5034859;28;20270;-83
2021/04/03 10:14:01;;;;;;;1.00;0.70;;;22.10;49.10;;;;;;5034230;28;20429;-83
2021/04/03 10:16:27;;;;;;;0.80;0.60;;;22.40;48.50;;;;;;5033694;28;20426;-83
2021/04/03 10:18:55;;;;;;;0.80;0.60;;;22.10;49.00;;;;;;5051111;28;20777;-83
2021/04/03 10:21:21;;;;;;;0.90;0.57;;;22.10;49.20;;;;;;5034642;28;20458;-83
2021/04/03 10:23:47;;;;;;;1.07;0.70;;;22.10;48.80;;;;;;5051979;28;20415;-83
2021/04/03 10:26:13;;;;;;;0.80;0.70;;;22.20;49.50;;;;;;5033665;28;20896;-83
2021/04/03 10:28:39;;;;;;;0.90;0.70;;;22.10;48.60;;;;;;5050426;28;20180;-83
2021/04/03 10:31:05;;;;;;;0.97;0.70;;;22.20;48.50;;;;;;5033942;28;20175;-82
2021/04/03 10:33:30;;;;;;;0.83;0.60;;;22.20;49.30;;;;;;5032692;28;20434;-83
2021/04/03 10:35:56;;;;;;;0.90;0.70;;;22.10;48.80;;;;;;5050793;28;20183;-83
2021/04/03 10:38:22;;;;;;;0.90;0.60;;;22.20;49.20;;;;;;5033642;28;20275;-83
2021/04/03 10:40:48;;;;;;;0.90;0.60;;;21.90;49.10;;;;;;5033678;28;20456;-83
2021/04/03 10:43:17;;;;;;;1.10;0.67;;;22.20;49.60;;;;;;5050222;28;20434;-82
2021/04/03 10:45:43;;;;;;;0.80;0.70;;;22.20;48.30;;;;;;5033645;28;20182;-83
2021/04/03 10:48:09;;;;;;;1.00;0.70;;;22.20;48.70;;;;;;5033447;28;20442;-83
2021/04/03 10:50:35;;;;;;;1.30;0.70;;;22.20;48.50;;;;;;5051594;28;20176;-83
2021/04/03 10:53:01;;;;;;;0.90;0.60;;;22.20;48.30;;;;;;5051352;28;20821;-83
2021/04/03 10:55:28;;;;;;;0.87;0.60;;;22.20;48.60;;;;;;5033407;28;20419;-83
2021/04/03 10:57:54;;;;;;;0.90;0.60;;;22.20;48.70;;;;;;5051231;28;20266;-83
2021/04/03 11:00:22;;;;;;;1.00;0.60;;;22.20;48.50;;;;;;5032733;28;20465;-83
2021/04/03 11:02:48;;;;;;;1.10;0.70;;;22.20;48.30;;;;;;5033141;28;20176;-83
2021/04/03 11:05:14;;;;;;;0.73;0.60;;;22.20;48.50;;;;;;5033595;28;20449;-82
2021/04/03 11:07:40;;;;;;;0.80;0.60;;;22.20;48.40;;;;;;5033538;28;20176;-82
2021/04/03 11:10:08;;;;;;;0.80;0.60;;;22.20;48.80;;;;;;5033398;28;20434;-82
2021/04/03 11:12:34;;;;;;;0.90;0.60;;;22.20;48.30;;;;;;5032811;28;20187;-83
2021/04/03 11:14:59;;;;;;;0.80;0.60;;;22.20;48.80;;;;;;5050621;28;20411;-83
2021/04/03 11:17:25;;;;;;;0.97;0.70;;;22.20;48.50;;;;;;5050731;28;20218;-83
2021/04/03 11:19:51;;;;;;;0.90;0.70;;;22.20;49.10;;;;;;5050193;28;20198;-83
2021/04/03 11:22:17;;;;;;;0.90;0.60;;;22.20;48.70;;;;;;5050824;28;20518;-83
2021/04/03 11:24:43;;;;;;;0.70;0.50;;;22.20;49.20;;;;;;5033402;28;20207;-83
2021/04/03 11:27:09;;;;;;;1.20;0.63;;;22.20;48.70;;;;;;5050253;28;20414;-84
2021/04/03 11:29:35;;;;;;;1.40;1.00;;;22.10;48.40;;;;;;5032744;28;20266;-83
2021/04/03 11:32:00;;;;;;;1.33;0.60;;;22.20;48.50;;;;;;5033081;28;20186;-83
2021/04/03 11:34:26;;;;;;;1.60;0.70;;;22.20;48.50;;;;;;5033543;28;20180;-83
2021/04/03 11:36:52;;;;;;;0.97;0.70;;;22.10;48.40;;;;;;5033202;28;20214;-83
2021/04/03 11:39:18;;;;;;;0.80;0.70;;;22.20;48.40;;;;;;5031504;28;20210;-84
2021/04/03 11:41:44;;;;;;;1.27;1.17;;;22.20;48.40;;;;;;5049159;28;20418;-83
2021/04/03 11:44:14;;;;;;;0.97;0.60;;;22.20;48.50;;;;;;5049953;28;20438;-83
2021/04/03 11:46:40;;;;;;;0.90;0.60;;;22.20;48.60;;;;;;5032180;28;20426;-84
2021/04/03 11:49:06;;;;;;;0.90;0.60;;;22.20;48.40;;;;;;5031861;28;20518;-83
2021/04/03 11:51:33;;;;;;;0.80;0.67;;;22.10;48.30;;;;;;5049363;28;20426;-83
2021/04/03 11:53:58;;;;;;;1.00;0.70;;;22.20;48.40;;;;;;5049397;28;20442;-84
2021/04/03 11:56:24;;;;;;;0.90;0.67;;;22.10;48.40;;;;;;5031836;28;20487;-84
2021/04/03 11:58:50;;;;;;;1.53;0.60;;;22.20;48.40;;;;;;5048617;28;20183;-83
2021/04/03 12:01:16;;;;;;;0.80;0.70;;;22.20;48.60;;;;;;5049028;28;20496;-83
2021/04/03 12:03:43;;;;;;;2.60;0.70;;;22.10;48.40;;;;;;5047631;28;20410;-83
2021/04/03 12:06:09;;;;;;;0.80;0.60;;;22.20;48.30;;;;;;5049370;28;20171;-83
2021/04/03 12:08:35;;;;;;;0.93;0.80;;;22.20;48.60;;;;;;5031882;28;20422;-83
2021/04/03 12:11:00;;;;;;;0.90;0.60;;;22.20;48.40;;;;;;5048893;28;20172;-83
2021/04/03 12:13:26;;;;;;;0.90;0.60;;;22.10;48.40;;;;;;5034088;28;20176;-83
2021/04/03 12:15:53;;;;;;;0.90;0.67;;;22.10;48.30;;;;;;5053071;28;20195;-83
2021/04/03 12:18:20;;;;;;;0.90;0.70;;;22.20;48.30;;;;;;5035038;28;20176;-83
2021/04/03 12:20:46;;;;;;;0.80;0.60;;;22.10;48.40;;;;;;5053035;28;20462;-83
2021/04/03 12:23:11;;;;;;;0.70;0.50;;;22.20;49.00;;;;;;5052604;28;20912;-82
2021/04/03 12:25:37;;;;;;;0.83;0.60;;;22.20;48.40;;;;;;5052366;28;20420;-83
2021/04/03 12:28:03;;;;;;;0.70;0.50;;;22.20;48.50;;;;;;5035939;28;20239;-83
2021/04/03 12:30:29;;;;;;;0.70;0.50;;;22.10;48.30;;;;;;5035812;28;20175;-83
2021/04/03 12:32:56;;;;;;;0.80;0.60;;;22.20;48.40;;;;;;5035418;28;20821;-83
2021/04/03 12:35:22;;;;;;;0.80;0.60;;;22.20;48.50;;;;;;5035126;28;20473;-83
2021/04/03 12:37:48;;;;;;;1.00;0.70;;;22.20;48.40;;;;;;5035773;28;20429;-83
2021/04/03 12:40:15;;;;;;;0.80;0.60;;;22.20;48.50;;;;;;5052639;28;20449;-83
2021/04/03 12:42:41;;;;;;;0.83;0.63;;;21.90;48.10;;;;;;5052582;28;20622;-83
2021/04/03 12:45:09;;;;;;;1.00;0.60;;;22.20;48.70;;;;;;5052316;28;20407;-83
2021/04/03 12:47:37;;;;;;;0.80;0.60;;;22.20;48.30;;;;;;5051842;28;20222;-84
2021/04/03 12:50:05;;;;;;;0.90;0.60;;;22.20;48.40;;;;;;5034739;28;20446;-83
2021/04/03 12:52:31;;;;;;;0.80;0.60;;;22.20;48.30;;;;;;5034511;28;20813;-83
2021/04/03 12:54:57;;;;;;;0.90;0.50;;;22.20;48.30;;;;;;5052147;28;20394;-83
2021/04/03 12:57:23;;;;;;;0.80;0.70;;;22.20;48.60;;;;;;5035130;28;20449;-84